sensor_id;sensor_type;location;lat;lon;timestamp;P1;durP1;ratioP1;P2;durP2;ratioP2
37859;SDS011;23698;52.014;5.190;2023-04-24T00:00:25;4.85;;;2.83;;
37859;SDS011;23698;52.014;5.190;2023-04-24T00:03:12;4.30;;;3.33;;
37859;SDS011;23698;52.014;5.190;2023-04-24T00:05:59;4.55;;;3.55;;
37859;SDS011;23698;52.014;5.190;2023-04-24T00:08:46;8.88;;;3.65;;
37859;SDS011;23698;52.014;5.190;2023-04-24T00:11:32;3.88;;;3.05;;
37859;SDS011;23698;52.014;5.190;2023-04-24T00:14:18;3.22;;;2.58;;
37859;SDS011;23698;52.014;5.190;2023-04-24T00:17:04;8.98;;;2.90;;
37859;SDS011;23698;52.014;5.190;2023-04-24T00:19:52;6.78;;;2.20;;
37859;SDS011;23698;52.014;5.190;2023-04-24T00:22:43;6.68;;;2.33;;
37859;SDS011;23698;52.014;5.190;2023-04-24T00:25:29;3.63;;;2.45;;
37859;SDS011;23698;52.014;5.190;2023-04-24T00:28:16;5.88;;;2.88;;
37859;SDS011;23698;52.014;5.190;2023-04-24T00:31:02;5.15;;;3.65;;
37859;SDS011;23698;52.014;5.190;2023-04-24T00:33:48;10.57;;;4.10;;
37859;SDS011;23698;52.014;5.190;2023-04-24T00:36:36;10.93;;;3.83;;
37859;SDS011;23698;52.014;5.190;2023-04-24T00:39:22;11.45;;;4.75;;
37859;SDS011;23698;52.014;5.190;2023-04-24T00:42:09;12.00;;;4.13;;
37859;SDS011;23698;52.014;5.190;2023-04-24T00:44:55;7.68;;;4.60;;
37859;SDS011;23698;52.014;5.190;2023-04-24T00:47:42;10.10;;;5.18;;
37859;SDS011;23698;52.014;5.190;2023-04-24T00:50:28;9.40;;;5.18;;
37859;SDS011;23698;52.014;5.190;2023-04-24T00:53:16;11.27;;;5.22;;
37859;SDS011;23698;52.014;5.190;2023-04-24T00:56:03;10.48;;;5.10;;
37859;SDS011;23698;52.014;5.190;2023-04-24T00:58:50;7.60;;;4.72;;
37859;SDS011;23698;52.014;5.190;2023-04-24T01:01:37;10.38;;;4.10;;
37859;SDS011;23698;52.014;5.190;2023-04-24T01:07:14;7.75;;;4.35;;
37859;SDS011;23698;52.014;5.190;2023-04-24T01:10:01;9.35;;;5.13;;
37859;SDS011;23698;52.014;5.190;2023-04-24T01:12:48;8.88;;;5.03;;
37859;SDS011;23698;52.014;5.190;2023-04-24T01:15:35;9.75;;;4.85;;
37859;SDS011;23698;52.014;5.190;2023-04-24T01:18:21;5.85;;;4.43;;
37859;SDS011;23698;52.014;5.190;2023-04-24T01:21:08;10.52;;;4.40;;
37859;SDS011;23698;52.014;5.190;2023-04-24T01:23:56;9.68;;;4.78;;
37859;SDS011;23698;52.014;5.190;2023-04-24T01:26:43;7.22;;;4.45;;
37859;SDS011;23698;52.014;5.190;2023-04-24T01:29:30;7.20;;;4.75;;
37859;SDS011;23698;52.014;5.190;2023-04-24T01:32:16;7.97;;;4.45;;
37859;SDS011;23698;52.014;5.190;2023-04-24T01:35:03;8.10;;;4.68;;
37859;SDS011;23698;52.014;5.190;2023-04-24T01:37:50;7.50;;;5.05;;
37859;SDS011;23698;52.014;5.190;2023-04-24T01:40:38;9.65;;;4.97;;
37859;SDS011;23698;52.014;5.190;2023-04-24T01:43:25;6.70;;;5.13;;
37859;SDS011;23698;52.014;5.190;2023-04-24T01:46:11;8.32;;;5.57;;
37859;SDS011;23698;52.014;5.190;2023-04-24T01:48:58;7.65;;;5.85;;
37859;SDS011;23698;52.014;5.190;2023-04-24T01:51:46;9.25;;;6.55;;
37859;SDS011;23698;52.014;5.190;2023-04-24T01:54:32;9.30;;;6.05;;
37859;SDS011;23698;52.014;5.190;2023-04-24T01:57:20;10.25;;;6.57;;
37859;SDS011;23698;52.014;5.190;2023-04-24T02:00:08;8.63;;;5.88;;
37859;SDS011;23698;52.014;5.190;2023-04-24T02:03:00;8.90;;;5.90;;
37859;SDS011;23698;52.014;5.190;2023-04-24T02:05:46;8.18;;;5.70;;
37859;SDS011;23698;52.014;5.190;2023-04-24T02:08:33;8.55;;;5.80;;
37859;SDS011;23698;52.014;5.190;2023-04-24T02:11:19;11.05;;;6.20;;
37859;SDS011;23698;52.014;5.190;2023-04-24T02:14:07;10.52;;;5.97;;
37859;SDS011;23698;52.014;5.190;2023-04-24T02:16:53;9.20;;;5.65;;
37859;SDS011;23698;52.014;5.190;2023-04-24T02:19:40;9.13;;;5.22;;
37859;SDS011;23698;52.014;5.190;2023-04-24T02:22:27;9.20;;;4.40;;
37859;SDS011;23698;52.014;5.190;2023-04-24T02:25:14;7.07;;;5.20;;
37859;SDS011;23698;52.014;5.190;2023-04-24T02:28:00;9.85;;;6.53;;
37859;SDS011;23698;52.014;5.190;2023-04-24T02:30:48;8.43;;;6.57;;
37859;SDS011;23698;52.014;5.190;2023-04-24T02:33:34;10.18;;;7.20;;
37859;SDS011;23698;52.014;5.190;2023-04-24T02:36:21;10.23;;;7.07;;
37859;SDS011;23698;52.014;5.190;2023-04-24T02:39:07;11.70;;;7.50;;
37859;SDS011;23698;52.014;5.190;2023-04-24T02:41:54;11.68;;;7.78;;
37859;SDS011;23698;52.014;5.190;2023-04-24T02:44:40;10.18;;;6.68;;
37859;SDS011;23698;52.014;5.190;2023-04-24T02:47:31;9.40;;;6.70;;
37859;SDS011;23698;52.014;5.190;2023-04-24T02:50:17;14.38;;;6.15;;
37859;SDS011;23698;52.014;5.190;2023-04-24T02:53:04;9.50;;;6.57;;
37859;SDS011;23698;52.014;5.190;2023-04-24T02:55:51;12.35;;;7.43;;
37859;SDS011;23698;52.014;5.190;2023-04-24T02:58:37;9.02;;;6.22;;
37859;SDS011;23698;52.014;5.190;2023-04-24T03:01:24;10.40;;;6.70;;
37859;SDS011;23698;52.014;5.190;2023-04-24T03:04:12;12.23;;;7.22;;
37859;SDS011;23698;52.014;5.190;2023-04-24T03:06:59;8.65;;;6.63;;
37859;SDS011;23698;52.014;5.190;2023-04-24T03:09:45;11.10;;;7.28;;
37859;SDS011;23698;52.014;5.190;2023-04-24T03:12:33;10.77;;;6.93;;
37859;SDS011;23698;52.014;5.190;2023-04-24T03:15:19;11.98;;;7.65;;
37859;SDS011;23698;52.014;5.190;2023-04-24T03:18:06;13.27;;;8.40;;
37859;SDS011;23698;52.014;5.190;2023-04-24T03:20:53;16.02;;;8.68;;
37859;SDS011;23698;52.014;5.190;2023-04-24T03:23:40;11.52;;;7.72;;
37859;SDS011;23698;52.014;5.190;2023-04-24T03:26:27;11.23;;;7.63;;
37859;SDS011;23698;52.014;5.190;2023-04-24T03:29:26;11.05;;;7.38;;
37859;SDS011;23698;52.014;5.190;2023-04-24T03:32:14;8.32;;;5.63;;
37859;SDS011;23698;52.014;5.190;2023-04-24T03:35:01;8.10;;;5.15;;
37859;SDS011;23698;52.014;5.190;2023-04-24T03:37:49;9.13;;;5.50;;
37859;SDS011;23698;52.014;5.190;2023-04-24T03:40:54;6.78;;;4.63;;
37859;SDS011;23698;52.014;5.190;2023-04-24T03:43:58;6.82;;;4.88;;
37859;SDS011;23698;52.014;5.190;2023-04-24T03:46:44;9.55;;;5.35;;
37859;SDS011;23698;52.014;5.190;2023-04-24T03:49:30;9.93;;;5.82;;
37859;SDS011;23698;52.014;5.190;2023-04-24T03:52:18;11.70;;;5.97;;
37859;SDS011;23698;52.014;5.190;2023-04-24T03:55:07;10.18;;;6.10;;
37859;SDS011;23698;52.014;5.190;2023-04-24T03:57:59;11.07;;;6.53;;
37859;SDS011;23698;52.014;5.190;2023-04-24T04:00:46;11.32;;;6.82;;
37859;SDS011;23698;52.014;5.190;2023-04-24T04:03:51;27.55;;;15.55;;
37859;SDS011;23698;52.014;5.190;2023-04-24T04:06:41;12.50;;;6.90;;
37859;SDS011;23698;52.014;5.190;2023-04-24T04:09:29;11.45;;;7.20;;
37859;SDS011;23698;52.014;5.190;2023-04-24T04:12:17;14.27;;;7.20;;
37859;SDS011;23698;52.014;5.190;2023-04-24T04:15:04;14.23;;;7.90;;
37859;SDS011;23698;52.014;5.190;2023-04-24T04:17:52;11.65;;;6.95;;
37859;SDS011;23698;52.014;5.190;2023-04-24T04:20:39;8.43;;;4.45;;
37859;SDS011;23698;52.014;5.190;2023-04-24T04:23:25;10.27;;;6.10;;
37859;SDS011;23698;52.014;5.190;2023-04-24T04:26:48;5.80;;;3.20;;
37859;SDS011;23698;52.014;5.190;2023-04-24T04:29:49;3.88;;;2.50;;
37859;SDS011;23698;52.014;5.190;2023-04-24T04:32:35;4.20;;;1.98;;
37859;SDS011;23698;52.014;5.190;2023-04-24T04:35:22;5.03;;;2.50;;
37859;SDS011;23698;52.014;5.190;2023-04-24T04:38:09;3.90;;;2.47;;
37859;SDS011;23698;52.014;5.190;2023-04-24T04:41:02;4.13;;;1.83;;
37859;SDS011;23698;52.014;5.190;2023-04-24T04:43:50;3.13;;;1.65;;
37859;SDS011;23698;52.014;5.190;2023-04-24T04:46:39;3.05;;;1.80;;
37859;SDS011;23698;52.014;5.190;2023-04-24T04:49:35;1.63;;;1.35;;
37859;SDS011;23698;52.014;5.190;2023-04-24T04:52:24;12.10;;;6.00;;
37859;SDS011;23698;52.014;5.190;2023-04-24T04:55:24;1.92;;;1.50;;
37859;SDS011;23698;52.014;5.190;2023-04-24T04:58:23;2.67;;;1.40;;
37859;SDS011;23698;52.014;5.190;2023-04-24T05:01:12;9.00;;;1.95;;
37859;SDS011;23698;52.014;5.190;2023-04-24T05:04:04;4.70;;;1.67;;
37859;SDS011;23698;52.014;5.190;2023-04-24T05:06:51;3.50;;;1.50;;
37859;SDS011;23698;52.014;5.190;2023-04-24T05:09:38;3.47;;;1.40;;
37859;SDS011;23698;52.014;5.190;2023-04-24T05:12:25;2.85;;;1.30;;
37859;SDS011;23698;52.014;5.190;2023-04-24T05:15:11;2.20;;;1.50;;
37859;SDS011;23698;52.014;5.190;2023-04-24T05:17:58;1.88;;;1.00;;
37859;SDS011;23698;52.014;5.190;2023-04-24T05:20:47;2.20;;;1.00;;
37859;SDS011;23698;52.014;5.190;2023-04-24T05:23:33;2.83;;;1.30;;
37859;SDS011;23698;52.014;5.190;2023-04-24T05:26:20;2.35;;;1.30;;
37859;SDS011;23698;52.014;5.190;2023-04-24T05:29:08;5.20;;;0.98;;
37859;SDS011;23698;52.014;5.190;2023-04-24T05:31:55;12.93;;;8.10;;
37859;SDS011;23698;52.014;5.190;2023-04-24T05:34:41;8.43;;;5.13;;
37859;SDS011;23698;52.014;5.190;2023-04-24T05:37:29;2.67;;;1.75;;
37859;SDS011;23698;52.014;5.190;2023-04-24T05:40:15;4.65;;;2.45;;
37859;SDS011;23698;52.014;5.190;2023-04-24T05:43:01;1.85;;;1.20;;
37859;SDS011;23698;52.014;5.190;2023-04-24T05:45:47;7.97;;;1.40;;
37859;SDS011;23698;52.014;5.190;2023-04-24T05:48:35;3.55;;;1.35;;
37859;SDS011;23698;52.014;5.190;2023-04-24T05:51:21;3.95;;;1.33;;
37859;SDS011;23698;52.014;5.190;2023-04-24T05:54:09;2.00;;;1.70;;
37859;SDS011;23698;52.014;5.190;2023-04-24T05:56:57;4.72;;;2.00;;
37859;SDS011;23698;52.014;5.190;2023-04-24T05:59:54;4.43;;;1.85;;
37859;SDS011;23698;52.014;5.190;2023-04-24T06:02:41;4.50;;;1.70;;
37859;SDS011;23698;52.014;5.190;2023-04-24T06:05:30;3.20;;;1.90;;
37859;SDS011;23698;52.014;5.190;2023-04-24T06:08:17;3.70;;;1.90;;
37859;SDS011;23698;52.014;5.190;2023-04-24T06:11:05;6.55;;;3.33;;
37859;SDS011;23698;52.014;5.190;2023-04-24T06:13:52;4.82;;;2.22;;
37859;SDS011;23698;52.014;5.190;2023-04-24T06:16:56;6.00;;;2.63;;
37859;SDS011;23698;52.014;5.190;2023-04-24T06:19:52;4.57;;;2.50;;
37859;SDS011;23698;52.014;5.190;2023-04-24T06:22:40;5.50;;;2.92;;
37859;SDS011;23698;52.014;5.190;2023-04-24T06:25:28;9.65;;;5.50;;
37859;SDS011;23698;52.014;5.190;2023-04-24T06:28:15;14.02;;;7.78;;
37859;SDS011;23698;52.014;5.190;2023-04-24T06:31:02;18.20;;;8.70;;
37859;SDS011;23698;52.014;5.190;2023-04-24T06:33:48;22.70;;;10.43;;
37859;SDS011;23698;52.014;5.190;2023-04-24T06:36:35;22.33;;;12.68;;
37859;SDS011;23698;52.014;5.190;2023-04-24T06:39:22;24.13;;;14.68;;
37859;SDS011;23698;52.014;5.190;2023-04-24T06:42:08;27.85;;;14.95;;
37859;SDS011;23698;52.014;5.190;2023-04-24T06:44:56;27.17;;;15.25;;
37859;SDS011;23698;52.014;5.190;2023-04-24T06:47:43;24.52;;;14.30;;
37859;SDS011;23698;52.014;5.190;2023-04-24T06:50:29;29.70;;;14.60;;
37859;SDS011;23698;52.014;5.190;2023-04-24T06:53:16;30.98;;;14.60;;
37859;SDS011;23698;52.014;5.190;2023-04-24T06:56:02;28.10;;;14.27;;
37859;SDS011;23698;52.014;5.190;2023-04-24T06:58:49;28.48;;;15.50;;
37859;SDS011;23698;52.014;5.190;2023-04-24T07:01:37;36.63;;;14.30;;
37859;SDS011;23698;52.014;5.190;2023-04-24T07:04:23;32.13;;;14.23;;
37859;SDS011;23698;52.014;5.190;2023-04-24T07:07:11;27.52;;;14.02;;
37859;SDS011;23698;52.014;5.190;2023-04-24T07:09:58;34.17;;;15.18;;
37859;SDS011;23698;52.014;5.190;2023-04-24T07:12:45;31.05;;;12.98;;
37859;SDS011;23698;52.014;5.190;2023-04-24T07:15:32;28.50;;;12.70;;
37859;SDS011;23698;52.014;5.190;2023-04-24T07:18:20;29.80;;;12.68;;
37859;SDS011;23698;52.014;5.190;2023-04-24T07:21:06;29.83;;;11.77;;
37859;SDS011;23698;52.014;5.190;2023-04-24T07:23:53;31.42;;;12.15;;
37859;SDS011;23698;52.014;5.190;2023-04-24T07:26:39;25.10;;;11.23;;
37859;SDS011;23698;52.014;5.190;2023-04-24T07:29:25;28.75;;;11.35;;
37859;SDS011;23698;52.014;5.190;2023-04-24T07:32:11;28.85;;;11.93;;
37859;SDS011;23698;52.014;5.190;2023-04-24T07:34:59;30.40;;;10.23;;
37859;SDS011;23698;52.014;5.190;2023-04-24T07:37:45;26.70;;;9.45;;
37859;SDS011;23698;52.014;5.190;2023-04-24T07:40:31;24.23;;;9.82;;
37859;SDS011;23698;52.014;5.190;2023-04-24T07:43:19;38.30;;;10.40;;
37859;SDS011;23698;52.014;5.190;2023-04-24T07:46:05;35.70;;;10.50;;
37859;SDS011;23698;52.014;5.190;2023-04-24T07:48:53;30.73;;;10.40;;
37859;SDS011;23698;52.014;5.190;2023-04-24T07:51:57;33.10;;;9.07;;
37859;SDS011;23698;52.014;5.190;2023-04-24T07:54:45;38.38;;;10.35;;
37859;SDS011;23698;52.014;5.190;2023-04-24T07:57:31;29.38;;;8.70;;
37859;SDS011;23698;52.014;5.190;2023-04-24T08:00:18;26.00;;;8.13;;
37859;SDS011;23698;52.014;5.190;2023-04-24T08:03:04;31.00;;;7.00;;
37859;SDS011;23698;52.014;5.190;2023-04-24T08:05:51;34.25;;;7.22;;
37859;SDS011;23698;52.014;5.190;2023-04-24T08:08:38;23.80;;;5.80;;
37859;SDS011;23698;52.014;5.190;2023-04-24T08:11:25;28.40;;;6.45;;
37859;SDS011;23698;52.014;5.190;2023-04-24T08:14:11;22.25;;;4.68;;
37859;SDS011;23698;52.014;5.190;2023-04-24T08:16:58;23.65;;;4.93;;
37859;SDS011;23698;52.014;5.190;2023-04-24T08:19:45;24.70;;;5.90;;
37859;SDS011;23698;52.014;5.190;2023-04-24T08:22:33;24.60;;;5.90;;
37859;SDS011;23698;52.014;5.190;2023-04-24T08:25:21;23.48;;;4.43;;
37859;SDS011;23698;52.014;5.190;2023-04-24T08:28:08;18.75;;;3.20;;
37859;SDS011;23698;52.014;5.190;2023-04-24T08:30:55;16.38;;;3.50;;
37859;SDS011;23698;52.014;5.190;2023-04-24T08:33:41;17.55;;;3.28;;
37859;SDS011;23698;52.014;5.190;2023-04-24T08:36:29;14.30;;;2.63;;
37859;SDS011;23698;52.014;5.190;2023-04-24T08:39:30;17.38;;;3.65;;
37859;SDS011;23698;52.014;5.190;2023-04-24T08:42:18;15.82;;;3.00;;
37859;SDS011;23698;52.014;5.190;2023-04-24T08:45:06;20.45;;;3.88;;
37859;SDS011;23698;52.014;5.190;2023-04-24T08:47:53;19.77;;;4.53;;
37859;SDS011;23698;52.014;5.190;2023-04-24T08:50:40;17.30;;;2.67;;
37859;SDS011;23698;52.014;5.190;2023-04-24T08:53:29;16.13;;;3.05;;
37859;SDS011;23698;52.014;5.190;2023-04-24T08:56:18;12.38;;;2.53;;
37859;SDS011;23698;52.014;5.190;2023-04-24T08:59:06;14.20;;;2.90;;
37859;SDS011;23698;52.014;5.190;2023-04-24T09:01:54;12.80;;;2.67;;
37859;SDS011;23698;52.014;5.190;2023-04-24T09:04:41;24.70;;;3.60;;
37859;SDS011;23698;52.014;5.190;2023-04-24T09:07:30;12.75;;;2.70;;
37859;SDS011;23698;52.014;5.190;2023-04-24T09:10:21;13.38;;;2.88;;
37859;SDS011;23698;52.014;5.190;2023-04-24T09:13:09;20.77;;;3.00;;
37859;SDS011;23698;52.014;5.190;2023-04-24T09:15:57;8.27;;;2.30;;
37859;SDS011;23698;52.014;5.190;2023-04-24T09:18:45;14.63;;;2.88;;
37859;SDS011;23698;52.014;5.190;2023-04-24T09:21:32;10.75;;;2.60;;
37859;SDS011;23698;52.014;5.190;2023-04-24T09:24:19;12.05;;;2.70;;
37859;SDS011;23698;52.014;5.190;2023-04-24T09:27:08;7.25;;;2.20;;
37859;SDS011;23698;52.014;5.190;2023-04-24T09:29:57;10.55;;;2.53;;
37859;SDS011;23698;52.014;5.190;2023-04-24T09:32:45;9.82;;;2.33;;
37859;SDS011;23698;52.014;5.190;2023-04-24T09:35:32;13.38;;;2.40;;
37859;SDS011;23698;52.014;5.190;2023-04-24T09:38:19;8.10;;;2.67;;
37859;SDS011;23698;52.014;5.190;2023-04-24T09:41:16;4.75;;;2.08;;
37859;SDS011;23698;52.014;5.190;2023-04-24T09:44:11;9.48;;;2.90;;
37859;SDS011;23698;52.014;5.190;2023-04-24T09:46:58;10.43;;;2.20;;
37859;SDS011;23698;52.014;5.190;2023-04-24T09:49:47;6.22;;;1.70;;
37859;SDS011;23698;52.014;5.190;2023-04-24T09:52:33;7.00;;;1.70;;
37859;SDS011;23698;52.014;5.190;2023-04-24T09:55:20;5.93;;;2.03;;
37859;SDS011;23698;52.014;5.190;2023-04-24T09:58:07;5.03;;;1.58;;
37859;SDS011;23698;52.014;5.190;2023-04-24T10:00:54;7.88;;;1.70;;
37859;SDS011;23698;52.014;5.190;2023-04-24T10:03:41;7.40;;;2.10;;
37859;SDS011;23698;52.014;5.190;2023-04-24T10:06:33;6.18;;;1.50;;
37859;SDS011;23698;52.014;5.190;2023-04-24T10:09:21;8.13;;;1.80;;
37859;SDS011;23698;52.014;5.190;2023-04-24T10:12:08;9.68;;;1.50;;
37859;SDS011;23698;52.014;5.190;2023-04-24T10:14:55;11.25;;;2.25;;
37859;SDS011;23698;52.014;5.190;2023-04-24T10:17:43;8.27;;;1.77;;
37859;SDS011;23698;52.014;5.190;2023-04-24T10:20:38;10.23;;;1.95;;
37859;SDS011;23698;52.014;5.190;2023-04-24T10:23:27;9.43;;;1.30;;
37859;SDS011;23698;52.014;5.190;2023-04-24T10:26:15;8.10;;;1.58;;
37859;SDS011;23698;52.014;5.190;2023-04-24T10:29:04;4.20;;;1.40;;
37859;SDS011;23698;52.014;5.190;2023-04-24T10:31:54;3.00;;;1.05;;
37859;SDS011;23698;52.014;5.190;2023-04-24T10:34:41;4.22;;;1.40;;
37859;SDS011;23698;52.014;5.190;2023-04-24T10:37:28;5.40;;;1.02;;
37859;SDS011;23698;52.014;5.190;2023-04-24T10:40:17;10.20;;;1.70;;
37859;SDS011;23698;52.014;5.190;2023-04-24T10:43:05;8.90;;;1.13;;
37859;SDS011;23698;52.014;5.190;2023-04-24T10:46:00;4.85;;;1.20;;
37859;SDS011;23698;52.014;5.190;2023-04-24T10:48:51;6.22;;;1.35;;
37859;SDS011;23698;52.014;5.190;2023-04-24T10:54:46;5.80;;;0.90;;
37859;SDS011;23698;52.014;5.190;2023-04-24T10:57:35;6.18;;;1.23;;
37859;SDS011;23698;52.014;5.190;2023-04-24T11:00:24;6.03;;;1.23;;
37859;SDS011;23698;52.014;5.190;2023-04-24T11:03:24;3.08;;;0.68;;
37859;SDS011;23698;52.014;5.190;2023-04-24T11:06:13;5.75;;;0.90;;
37859;SDS011;23698;52.014;5.190;2023-04-24T11:09:02;5.35;;;1.50;;
37859;SDS011;23698;52.014;5.190;2023-04-24T11:11:51;3.00;;;1.02;;
37859;SDS011;23698;52.014;5.190;2023-04-24T11:17:55;4.00;;;0.75;;
37859;SDS011;23698;52.014;5.190;2023-04-24T11:20:43;4.40;;;1.02;;
37859;SDS011;23698;52.014;5.190;2023-04-24T11:23:32;3.72;;;1.00;;
37859;SDS011;23698;52.014;5.190;2023-04-24T11:26:22;6.88;;;0.95;;
37859;SDS011;23698;52.014;5.190;2023-04-24T11:29:09;3.38;;;0.60;;
37859;SDS011;23698;52.014;5.190;2023-04-24T11:31:57;4.25;;;0.88;;
37859;SDS011;23698;52.014;5.190;2023-04-24T11:35:02;3.92;;;0.60;;
37859;SDS011;23698;52.014;5.190;2023-04-24T11:37:52;4.40;;;1.25;;
37859;SDS011;23698;52.014;5.190;2023-04-24T11:40:59;4.53;;;0.80;;
37859;SDS011;23698;52.014;5.190;2023-04-24T11:43:48;4.47;;;0.90;;
37859;SDS011;23698;52.014;5.190;2023-04-24T11:46:35;4.93;;;0.57;;
37859;SDS011;23698;52.014;5.190;2023-04-24T11:49:24;1.90;;;0.52;;
37859;SDS011;23698;52.014;5.190;2023-04-24T11:52:10;3.10;;;0.90;;
37859;SDS011;23698;52.014;5.190;2023-04-24T11:54:56;4.35;;;0.60;;
37859;SDS011;23698;52.014;5.190;2023-04-24T11:57:44;3.28;;;0.60;;
37859;SDS011;23698;52.014;5.190;2023-04-24T12:00:32;4.97;;;1.25;;
37859;SDS011;23698;52.014;5.190;2023-04-24T12:03:19;4.82;;;1.30;;
37859;SDS011;23698;52.014;5.190;2023-04-24T12:06:07;5.05;;;1.48;;
37859;SDS011;23698;52.014;5.190;2023-04-24T12:08:55;2.72;;;0.98;;
37859;SDS011;23698;52.014;5.190;2023-04-24T12:11:55;4.75;;;0.95;;
37859;SDS011;23698;52.014;5.190;2023-04-24T12:14:43;4.07;;;0.82;;
37859;SDS011;23698;52.014;5.190;2023-04-24T12:17:31;4.25;;;0.98;;
37859;SDS011;23698;52.014;5.190;2023-04-24T12:20:23;2.47;;;0.82;;
37859;SDS011;23698;52.014;5.190;2023-04-24T12:23:11;3.63;;;1.13;;
37859;SDS011;23698;52.014;5.190;2023-04-24T12:25:59;4.30;;;1.15;;
37859;SDS011;23698;52.014;5.190;2023-04-24T12:28:46;7.07;;;1.40;;
37859;SDS011;23698;52.014;5.190;2023-04-24T12:31:35;10.77;;;1.48;;
37859;SDS011;23698;52.014;5.190;2023-04-24T12:34:22;10.20;;;1.80;;
37859;SDS011;23698;52.014;5.190;2023-04-24T12:37:10;11.13;;;2.03;;
37859;SDS011;23698;52.014;5.190;2023-04-24T12:40:01;14.95;;;1.55;;
37859;SDS011;23698;52.014;5.190;2023-04-24T12:42:51;7.30;;;1.75;;
37859;SDS011;23698;52.014;5.190;2023-04-24T12:45:39;7.88;;;1.40;;
37859;SDS011;23698;52.014;5.190;2023-04-24T12:48:25;6.50;;;1.30;;
37859;SDS011;23698;52.014;5.190;2023-04-24T12:51:12;8.80;;;1.75;;
37859;SDS011;23698;52.014;5.190;2023-04-24T12:53:58;7.25;;;1.40;;
37859;SDS011;23698;52.014;5.190;2023-04-24T12:56:45;8.73;;;1.50;;
37859;SDS011;23698;52.014;5.190;2023-04-24T12:59:32;15.50;;;1.85;;
37859;SDS011;23698;52.014;5.190;2023-04-24T13:02:18;15.27;;;2.53;;
37859;SDS011;23698;52.014;5.190;2023-04-24T13:05:08;8.38;;;2.17;;
37859;SDS011;23698;52.014;5.190;2023-04-24T13:07:56;12.63;;;2.20;;
37859;SDS011;23698;52.014;5.190;2023-04-24T13:10:43;11.80;;;1.85;;
37859;SDS011;23698;52.014;5.190;2023-04-24T13:13:31;7.25;;;1.98;;
37859;SDS011;23698;52.014;5.190;2023-04-24T13:16:17;10.50;;;2.55;;
37859;SDS011;23698;52.014;5.190;2023-04-24T13:19:03;12.55;;;2.67;;
37859;SDS011;23698;52.014;5.190;2023-04-24T13:21:50;9.98;;;2.13;;
37859;SDS011;23698;52.014;5.190;2023-04-24T13:24:36;10.52;;;2.35;;
37859;SDS011;23698;52.014;5.190;2023-04-24T13:27:24;8.23;;;1.98;;
37859;SDS011;23698;52.014;5.190;2023-04-24T13:30:12;16.15;;;2.55;;
37859;SDS011;23698;52.014;5.190;2023-04-24T13:32:59;9.88;;;2.20;;
37859;SDS011;23698;52.014;5.190;2023-04-24T13:35:45;9.52;;;2.75;;
37859;SDS011;23698;52.014;5.190;2023-04-24T13:38:32;13.82;;;2.20;;
37859;SDS011;23698;52.014;5.190;2023-04-24T13:41:18;12.18;;;2.38;;
37859;SDS011;23698;52.014;5.190;2023-04-24T13:44:05;12.43;;;2.28;;
37859;SDS011;23698;52.014;5.190;2023-04-24T13:46:54;11.15;;;2.80;;
37859;SDS011;23698;52.014;5.190;2023-04-24T13:49:41;13.00;;;2.40;;
37859;SDS011;23698;52.014;5.190;2023-04-24T13:52:27;9.88;;;2.80;;
37859;SDS011;23698;52.014;5.190;2023-04-24T13:55:14;14.50;;;2.42;;
37859;SDS011;23698;52.014;5.190;2023-04-24T13:58:00;11.57;;;2.15;;
37859;SDS011;23698;52.014;5.190;2023-04-24T14:00:46;12.55;;;3.50;;
37859;SDS011;23698;52.014;5.190;2023-04-24T14:03:34;10.40;;;2.08;;
37859;SDS011;23698;52.014;5.190;2023-04-24T14:06:21;11.60;;;2.25;;
37859;SDS011;23698;52.014;5.190;2023-04-24T14:09:07;10.80;;;2.30;;
37859;SDS011;23698;52.014;5.190;2023-04-24T14:11:54;12.93;;;2.97;;
37859;SDS011;23698;52.014;5.190;2023-04-24T14:14:40;13.57;;;2.78;;
37859;SDS011;23698;52.014;5.190;2023-04-24T14:17:27;12.07;;;2.80;;
37859;SDS011;23698;52.014;5.190;2023-04-24T14:20:15;7.78;;;2.20;;
37859;SDS011;23698;52.014;5.190;2023-04-24T14:23:01;11.30;;;3.05;;
37859;SDS011;23698;52.014;5.190;2023-04-24T14:25:49;10.23;;;2.47;;
37859;SDS011;23698;52.014;5.190;2023-04-24T14:28:37;16.73;;;2.60;;
37859;SDS011;23698;52.014;5.190;2023-04-24T14:31:23;11.63;;;2.75;;
37859;SDS011;23698;52.014;5.190;2023-04-24T14:34:10;10.48;;;2.25;;
37859;SDS011;23698;52.014;5.190;2023-04-24T14:36:58;15.68;;;3.00;;
37859;SDS011;23698;52.014;5.190;2023-04-24T14:39:44;7.30;;;2.28;;
37859;SDS011;23698;52.014;5.190;2023-04-24T14:42:45;11.07;;;2.53;;
37859;SDS011;23698;52.014;5.190;2023-04-24T14:45:31;9.63;;;2.97;;
37859;SDS011;23698;52.014;5.190;2023-04-24T14:48:17;12.57;;;3.38;;
37859;SDS011;23698;52.014;5.190;2023-04-24T14:51:04;9.70;;;2.78;;
37859;SDS011;23698;52.014;5.190;2023-04-24T14:53:52;19.15;;;5.22;;
37859;SDS011;23698;52.014;5.190;2023-04-24T14:56:38;11.25;;;3.03;;
37859;SDS011;23698;52.014;5.190;2023-04-24T14:59:25;8.02;;;2.38;;
37859;SDS011;23698;52.014;5.190;2023-04-24T15:02:13;11.10;;;3.10;;
37859;SDS011;23698;52.014;5.190;2023-04-24T15:05:02;15.60;;;2.83;;
37859;SDS011;23698;52.014;5.190;2023-04-24T15:07:49;12.10;;;3.13;;
37859;SDS011;23698;52.014;5.190;2023-04-24T15:10:37;13.00;;;3.28;;
37859;SDS011;23698;52.014;5.190;2023-04-24T15:13:23;11.60;;;3.17;;
37859;SDS011;23698;52.014;5.190;2023-04-24T15:16:10;10.50;;;3.30;;
37859;SDS011;23698;52.014;5.190;2023-04-24T15:18:56;12.05;;;3.00;;
37859;SDS011;23698;52.014;5.190;2023-04-24T15:21:42;7.28;;;2.50;;
37859;SDS011;23698;52.014;5.190;2023-04-24T15:24:29;14.10;;;3.65;;
37859;SDS011;23698;52.014;5.190;2023-04-24T15:27:16;9.77;;;2.75;;
37859;SDS011;23698;52.014;5.190;2023-04-24T15:30:03;21.13;;;8.60;;
37859;SDS011;23698;52.014;5.190;2023-04-24T15:32:50;12.65;;;3.47;;
37859;SDS011;23698;52.014;5.190;2023-04-24T15:35:36;16.50;;;3.72;;
37859;SDS011;23698;52.014;5.190;2023-04-24T15:38:22;10.60;;;3.08;;
37859;SDS011;23698;52.014;5.190;2023-04-24T15:41:08;10.30;;;2.95;;
37859;SDS011;23698;52.014;5.190;2023-04-24T15:43:56;14.50;;;2.90;;
37859;SDS011;23698;52.014;5.190;2023-04-24T15:46:43;10.73;;;2.83;;
37859;SDS011;23698;52.014;5.190;2023-04-24T15:49:30;13.52;;;4.05;;
37859;SDS011;23698;52.014;5.190;2023-04-24T15:52:17;11.82;;;3.58;;
37859;SDS011;23698;52.014;5.190;2023-04-24T15:55:03;13.60;;;3.25;;
37859;SDS011;23698;52.014;5.190;2023-04-24T15:57:53;13.30;;;3.60;;
37859;SDS011;23698;52.014;5.190;2023-04-24T16:00:44;9.23;;;2.65;;
37859;SDS011;23698;52.014;5.190;2023-04-24T16:06:20;12.32;;;3.67;;
37859;SDS011;23698;52.014;5.190;2023-04-24T16:09:06;11.07;;;3.38;;
37859;SDS011;23698;52.014;5.190;2023-04-24T16:11:53;11.48;;;3.05;;
37859;SDS011;23698;52.014;5.190;2023-04-24T16:14:40;12.57;;;3.17;;
37859;SDS011;23698;52.014;5.190;2023-04-24T16:17:28;12.00;;;3.88;;
37859;SDS011;23698;52.014;5.190;2023-04-24T16:20:15;13.43;;;3.60;;
37859;SDS011;23698;52.014;5.190;2023-04-24T16:23:02;11.52;;;3.17;;
37859;SDS011;23698;52.014;5.190;2023-04-24T16:25:48;11.57;;;2.85;;
37859;SDS011;23698;52.014;5.190;2023-04-24T16:28:35;15.18;;;3.30;;
37859;SDS011;23698;52.014;5.190;2023-04-24T16:31:21;11.23;;;3.50;;
37859;SDS011;23698;52.014;5.190;2023-04-24T16:34:12;7.90;;;3.17;;
37859;SDS011;23698;52.014;5.190;2023-04-24T16:36:58;14.95;;;3.47;;
37859;SDS011;23698;52.014;5.190;2023-04-24T16:39:45;14.52;;;4.20;;
37859;SDS011;23698;52.014;5.190;2023-04-24T16:42:32;12.98;;;3.20;;
37859;SDS011;23698;52.014;5.190;2023-04-24T16:45:18;10.73;;;3.00;;
37859;SDS011;23698;52.014;5.190;2023-04-24T16:48:04;13.18;;;4.00;;
37859;SDS011;23698;52.014;5.190;2023-04-24T16:50:53;11.30;;;3.55;;
37859;SDS011;23698;52.014;5.190;2023-04-24T16:53:39;13.13;;;3.28;;
37859;SDS011;23698;52.014;5.190;2023-04-24T16:56:28;15.57;;;3.95;;